sensor_id;sensor_type;location;lat;lon;timestamp;P1;durP1;ratioP1;P2;durP2;ratioP2
77168;SDS011;66281;45.114;20.730;2023-03-11T00:03:29;11.37;;;6.27;;
77168;SDS011;66281;45.114;20.730;2023-03-11T00:13:29;10.23;;;5.83;;
77168;SDS011;66281;45.114;20.730;2023-03-11T00:23:30;8.95;;;5.97;;
77168;SDS011;66281;45.114;20.730;2023-03-11T00:33:30;9.90;;;6.37;;
77168;SDS011;66281;45.114;20.730;2023-03-11T00:43:31;9.77;;;7.03;;
77168;SDS011;66281;45.114;20.730;2023-03-11T00:53:31;7.53;;;4.97;;
77168;SDS011;66281;45.114;20.730;2023-03-11T01:03:32;7.77;;;4.63;;
77168;SDS011;66281;45.114;20.730;2023-03-11T01:13:33;7.88;;;5.10;;
77168;SDS011;66281;45.114;20.730;2023-03-11T01:23:34;7.60;;;4.53;;
77168;SDS011;66281;45.114;20.730;2023-03-11T01:33:34;8.23;;;5.20;;
77168;SDS011;66281;45.114;20.730;2023-03-11T01:53:54;9.35;;;5.75;;
77168;SDS011;66281;45.114;20.730;2023-03-11T02:03:56;9.87;;;6.47;;
77168;SDS011;66281;45.114;20.730;2023-03-11T02:13:59;7.87;;;5.43;;
77168;SDS011;66281;45.114;20.730;2023-03-11T02:34:26;9.87;;;6.70;;
77168;SDS011;66281;45.114;20.730;2023-03-11T02:44:28;9.70;;;6.63;;
77168;SDS011;66281;45.114;20.730;2023-03-11T02:54:29;10.10;;;6.97;;
77168;SDS011;66281;45.114;20.730;2023-03-11T03:04:31;8.60;;;6.32;;
77168;SDS011;66281;45.114;20.730;2023-03-11T03:14:32;10.57;;;6.43;;
77168;SDS011;66281;45.114;20.730;2023-03-11T03:24:33;8.50;;;5.97;;
77168;SDS011;66281;45.114;20.730;2023-03-11T03:34:33;9.00;;;5.57;;
77168;SDS011;66281;45.114;20.730;2023-03-11T03:44:34;9.83;;;5.70;;
77168;SDS011;66281;45.114;20.730;2023-03-11T03:54:36;9.33;;;5.10;;
77168;SDS011;66281;45.114;20.730;2023-03-11T04:04:36;6.55;;;4.78;;
77168;SDS011;66281;45.114;20.730;2023-03-11T04:14:37;8.90;;;4.83;;
77168;SDS011;66281;45.114;20.730;2023-03-11T04:24:38;8.93;;;6.37;;
77168;SDS011;66281;45.114;20.730;2023-03-11T04:34:39;7.37;;;4.57;;
77168;SDS011;66281;45.114;20.730;2023-03-11T04:44:40;19.92;;;11.65;;
77168;SDS011;66281;45.114;20.730;2023-03-11T04:54:41;5.47;;;3.70;;
77168;SDS011;66281;45.114;20.730;2023-03-11T05:04:42;7.03;;;4.60;;
77168;SDS011;66281;45.114;20.730;2023-03-11T05:14:42;7.13;;;4.77;;
77168;SDS011;66281;45.114;20.730;2023-03-11T05:24:43;6.93;;;5.50;;
77168;SDS011;66281;45.114;20.730;2023-03-11T05:34:44;8.00;;;4.83;;
77168;SDS011;66281;45.114;20.730;2023-03-11T05:44:45;8.75;;;4.97;;
77168;SDS011;66281;45.114;20.730;2023-03-11T05:54:50;10.63;;;6.00;;
77168;SDS011;66281;45.114;20.730;2023-03-11T06:04:52;11.40;;;7.17;;
77168;SDS011;66281;45.114;20.730;2023-03-11T06:14:53;13.50;;;8.13;;
77168;SDS011;66281;45.114;20.730;2023-03-11T06:24:54;16.03;;;10.13;;
77168;SDS011;66281;45.114;20.730;2023-03-11T06:34:56;13.98;;;9.00;;
77168;SDS011;66281;45.114;20.730;2023-03-11T06:44:56;16.02;;;8.60;;
77168;SDS011;66281;45.114;20.730;2023-03-11T06:54:57;10.20;;;6.53;;
77168;SDS011;66281;45.114;20.730;2023-03-11T07:04:59;7.23;;;4.40;;
77168;SDS011;66281;45.114;20.730;2023-03-11T07:15:01;10.77;;;5.70;;
77168;SDS011;66281;45.114;20.730;2023-03-11T07:25:04;4.87;;;3.10;;
77168;SDS011;66281;45.114;20.730;2023-03-11T07:35:04;14.00;;;6.97;;
77168;SDS011;66281;45.114;20.730;2023-03-11T07:45:05;4.57;;;3.20;;
77168;SDS011;66281;45.114;20.730;2023-03-11T07:55:06;6.20;;;2.70;;
77168;SDS011;66281;45.114;20.730;2023-03-11T08:05:07;5.30;;;2.90;;
77168;SDS011;66281;45.114;20.730;2023-03-11T08:15:08;9.03;;;4.40;;
77168;SDS011;66281;45.114;20.730;2023-03-11T08:25:09;10.70;;;5.10;;
77168;SDS011;66281;45.114;20.730;2023-03-11T08:35:10;16.63;;;5.53;;
77168;SDS011;66281;45.114;20.730;2023-03-11T08:45:11;7.75;;;4.05;;
77168;SDS011;66281;45.114;20.730;2023-03-11T08:55:13;20.27;;;4.47;;
77168;SDS011;66281;45.114;20.730;2023-03-11T09:05:15;14.37;;;4.23;;
77168;SDS011;66281;45.114;20.730;2023-03-11T09:15:15;8.77;;;3.45;;
77168;SDS011;66281;45.114;20.730;2023-03-11T09:25:16;18.20;;;4.33;;
77168;SDS011;66281;45.114;20.730;2023-03-11T09:35:16;18.98;;;5.38;;
77168;SDS011;66281;45.114;20.730;2023-03-11T09:45:18;25.67;;;7.73;;
77168;SDS011;66281;45.114;20.730;2023-03-11T09:55:29;16.92;;;5.07;;
77168;SDS011;66281;45.114;20.730;2023-03-11T10:05:34;13.57;;;4.70;;
77168;SDS011;66281;45.114;20.730;2023-03-11T10:36:14;20.70;;;5.50;;
77168;SDS011;66281;45.114;20.730;2023-03-11T10:46:19;13.23;;;5.80;;
77168;SDS011;66281;45.114;20.730;2023-03-11T10:56:24;21.38;;;8.10;;
77168;SDS011;66281;45.114;20.730;2023-03-11T11:06:41;15.30;;;5.47;;
77168;SDS011;66281;45.114;20.730;2023-03-11T11:16:41;11.18;;;4.75;;
77168;SDS011;66281;45.114;20.730;2023-03-11T11:26:42;10.55;;;4.97;;
77168;SDS011;66281;45.114;20.730;2023-03-11T11:37:03;11.47;;;5.10;;
77168;SDS011;66281;45.114;20.730;2023-03-11T11:57:14;11.90;;;3.55;;
77168;SDS011;66281;45.114;20.730;2023-03-11T12:17:37;10.87;;;4.30;;
77168;SDS011;66281;45.114;20.730;2023-03-11T12:37:39;15.90;;;7.63;;
77168;SDS011;66281;45.114;20.730;2023-03-11T12:47:40;27.08;;;12.45;;
77168;SDS011;66281;45.114;20.730;2023-03-11T13:07:48;19.83;;;7.30;;
77168;SDS011;66281;45.114;20.730;2023-03-11T13:48:48;12.88;;;7.22;;
77168;SDS011;66281;45.114;20.730;2023-03-11T13:58:50;17.97;;;9.47;;
77168;SDS011;66281;45.114;20.730;2023-03-11T14:08:54;10.02;;;6.15;;
77168;SDS011;66281;45.114;20.730;2023-03-11T14:19:03;17.03;;;8.97;;
77168;SDS011;66281;45.114;20.730;2023-03-11T14:29:07;13.20;;;6.30;;
77168;SDS011;66281;45.114;20.730;2023-03-11T14:49:27;41.07;;;16.17;;
77168;SDS011;66281;45.114;20.730;2023-03-11T14:59:29;20.10;;;8.53;;
77168;SDS011;66281;45.114;20.730;2023-03-11T15:09:30;15.48;;;6.25;;
77168;SDS011;66281;45.114;20.730;2023-03-11T15:19:31;16.00;;;6.80;;
77168;SDS011;66281;45.114;20.730;2023-03-11T15:29:33;34.67;;;17.07;;
77168;SDS011;66281;45.114;20.730;2023-03-11T15:49:34;13.30;;;6.63;;
77168;SDS011;66281;45.114;20.730;2023-03-11T15:59:35;24.48;;;9.43;;
77168;SDS011;66281;45.114;20.730;2023-03-11T16:09:36;5.73;;;3.13;;
77168;SDS011;66281;45.114;20.730;2023-03-11T16:19:37;18.58;;;5.75;;
77168;SDS011;66281;45.114;20.730;2023-03-11T16:29:37;18.98;;;9.05;;
77168;SDS011;66281;45.114;20.730;2023-03-11T16:39:37;16.65;;;6.80;;
77168;SDS011;66281;45.114;20.730;2023-03-11T16:49:38;17.48;;;8.73;;
77168;SDS011;66281;45.114;20.730;2023-03-11T16:59:38;17.57;;;7.90;;
77168;SDS011;66281;45.114;20.730;2023-03-11T17:09:39;12.68;;;6.82;;
77168;SDS011;66281;45.114;20.730;2023-03-11T17:19:41;21.27;;;16.65;;
77168;SDS011;66281;45.114;20.730;2023-03-11T17:29:41;20.53;;;10.43;;
77168;SDS011;66281;45.114;20.730;2023-03-11T17:39:41;42.10;;;24.35;;
77168;SDS011;66281;45.114;20.730;2023-03-11T17:49:42;31.73;;;17.55;;
77168;SDS011;66281;45.114;20.730;2023-03-11T17:59:42;30.67;;;14.00;;
77168;SDS011;66281;45.114;20.730;2023-03-11T18:09:43;34.63;;;16.15;;
77168;SDS011;66281;45.114;20.730;2023-03-11T18:19:43;36.67;;;15.65;;
77168;SDS011;66281;45.114;20.730;2023-03-11T18:29:44;40.33;;;16.83;;
77168;SDS011;66281;45.114;20.730;2023-03-11T18:39:44;21.30;;;11.45;;
77168;SDS011;66281;45.114;20.730;2023-03-11T18:49:45;14.27;;;7.53;;
77168;SDS011;66281;45.114;20.730;2023-03-11T18:59:46;14.25;;;6.28;;
77168;SDS011;66281;45.114;20.730;2023-03-11T19:09:47;14.70;;;7.27;;
77168;SDS011;66281;45.114;20.730;2023-03-11T19:19:48;19.07;;;7.70;;
77168;SDS011;66281;45.114;20.730;2023-03-11T19:29:48;13.60;;;6.75;;
77168;SDS011;66281;45.114;20.730;2023-03-11T19:39:49;14.13;;;6.10;;
77168;SDS011;66281;45.114;20.730;2023-03-11T19:49:49;14.77;;;6.88;;
77168;SDS011;66281;45.114;20.730;2023-03-11T19:59:50;18.90;;;9.65;;
77168;SDS011;66281;45.114;20.730;2023-03-11T20:09:50;43.63;;;15.63;;
77168;SDS011;66281;45.114;20.730;2023-03-11T20:19:50;33.93;;;17.93;;
77168;SDS011;66281;45.114;20.730;2023-03-11T20:29:51;37.80;;;17.92;;
77168;SDS011;66281;45.114;20.730;2023-03-11T20:39:51;28.20;;;12.05;;
77168;SDS011;66281;45.114;20.730;2023-03-11T20:49:52;25.67;;;12.05;;
77168;SDS011;66281;45.114;20.730;2023-03-11T20:59:52;11.87;;;4.77;;
77168;SDS011;66281;45.114;20.730;2023-03-11T21:09:53;13.18;;;4.97;;
77168;SDS011;66281;45.114;20.730;2023-03-11T21:19:53;15.90;;;4.95;;
77168;SDS011;66281;45.114;20.730;2023-03-11T21:29:54;5.90;;;3.20;;
77168;SDS011;66281;45.114;20.730;2023-03-11T21:39:54;10.07;;;5.20;;
77168;SDS011;66281;45.114;20.730;2023-03-11T21:49:55;13.73;;;5.95;;
77168;SDS011;66281;45.114;20.730;2023-03-11T21:59:55;18.10;;;8.85;;
77168;SDS011;66281;45.114;20.730;2023-03-11T22:09:56;19.10;;;8.40;;
77168;SDS011;66281;45.114;20.730;2023-03-11T22:19:56;15.60;;;6.65;;
77168;SDS011;66281;45.114;20.730;2023-03-11T22:29:57;18.00;;;7.22;;
77168;SDS011;66281;45.114;20.730;2023-03-11T22:39:57;19.25;;;7.85;;
77168;SDS011;66281;45.114;20.730;2023-03-11T22:49:58;15.20;;;7.22;;
77168;SDS011;66281;45.114;20.730;2023-03-11T22:59:58;18.53;;;6.00;;
77168;SDS011;66281;45.114;20.730;2023-03-11T23:09:58;17.88;;;6.95;;
77168;SDS011;66281;45.114;20.730;2023-03-11T23:19:59;19.83;;;8.80;;
77168;SDS011;66281;45.114;20.730;2023-03-11T23:30:00;9.53;;;4.63;;
77168;SDS011;66281;45.114;20.730;2023-03-11T23:40:00;10.38;;;4.38;;
77168;SDS011;66281;45.114;20.730;2023-03-11T23:50:01;7.83;;;3.83;;
